createdAt,value
2019-02-24T00:02:21.586Z,108.03
2019-02-24T00:04:50.901Z,114.20
2019-02-24T00:07:19.605Z,109.65
2019-02-24T00:09:48.256Z,113.92
2019-02-24T00:12:16.932Z,103.07
2019-02-24T00:14:45.617Z,105.87
2019-02-24T00:17:14.273Z,112.17
2019-02-24T00:19:43.002Z,96.35
2019-02-24T00:22:11.674Z,97.75
2019-02-24T00:24:40.348Z,117.08
2019-02-24T00:27:09.070Z,116.33
2019-02-24T00:29:37.721Z,117.62
2019-02-24T00:32:06.384Z,107.32
2019-02-24T00:34:35.084Z,108.80
2019-02-24T00:37:03.803Z,100.62
2019-02-24T00:39:32.523Z,108.80
2019-02-24T00:42:01.253Z,95.67
2019-02-24T00:44:29.940Z,90.30
2019-02-24T00:46:58.597Z,87.00
2019-02-24T00:49:27.305Z,88.25
2019-02-24T00:51:56.022Z,85.65
2019-02-24T00:54:24.692Z,95.65
2019-02-24T00:56:53.377Z,99.42
2019-02-24T00:59:22.032Z,97.00
2019-02-24T01:01:50.786Z,98.45
2019-02-24T01:04:19.530Z,95.80
2019-02-24T01:06:48.176Z,99.62
2019-02-24T01:09:16.862Z,93.85
2019-02-24T01:11:45.556Z,89.03
2019-02-24T01:14:14.210Z,89.47
2019-02-24T01:16:42.910Z,86.57
2019-02-24T01:19:11.612Z,83.27
2019-02-24T01:21:40.262Z,84.05
2019-02-24T01:24:08.965Z,87.60
2019-02-24T01:26:37.665Z,92.17
2019-02-24T01:29:06.372Z,91.45
2019-02-24T01:31:35.068Z,89.75
2019-02-24T01:34:03.759Z,90.07
2019-02-24T01:36:32.429Z,85.80
2019-02-24T01:39:01.134Z,92.65
2019-02-24T01:41:29.862Z,91.67
2019-02-24T01:43:58.575Z,93.85
2019-02-24T01:46:27.295Z,97.97
2019-02-24T01:48:55.961Z,96.92
2019-02-24T01:51:24.641Z,100.02
2019-02-24T01:53:53.337Z,91.95
2019-02-24T01:56:22.009Z,93.65
2019-02-24T01:58:50.680Z,89.72
2019-02-24T02:01:22.754Z,101.70
2019-02-24T02:03:51.457Z,95.57
2019-02-24T02:06:20.132Z,98.78
2019-02-24T02:08:48.785Z,99.90
2019-02-24T02:11:17.521Z,95.42
2019-02-24T02:13:46.185Z,107.37
2019-02-24T02:16:14.968Z,95.47
2019-02-24T02:18:43.725Z,96.42
2019-02-24T02:21:12.460Z,97.50
2019-02-24T02:23:41.097Z,96.87
2019-02-24T02:26:09.875Z,98.42
2019-02-24T02:28:43.995Z,91.30
2019-02-24T02:31:08.995Z,103.47
2019-02-24T02:33:37.763Z,93.25
2019-02-24T02:36:06.410Z,94.65
2019-02-24T02:38:35.128Z,94.87
2019-02-24T02:41:05.297Z,98.62
2019-02-24T02:43:33.944Z,112.97
2019-02-24T02:46:02.619Z,110.22
2019-02-24T02:48:31.309Z,119.08
2019-02-24T02:51:00.050Z,114.82
2019-02-24T02:53:28.761Z,120.85
2019-02-24T02:55:57.442Z,114.22
2019-02-24T02:58:26.168Z,119.57
2019-02-24T03:00:54.831Z,111.42
2019-02-24T03:03:23.485Z,107.87
2019-02-24T03:05:56.859Z,110.03
2019-02-24T03:08:27.112Z,102.78
2019-02-24T03:10:55.792Z,112.12
2019-02-24T03:13:24.589Z,108.30
2019-02-24T03:15:53.261Z,96.08
2019-02-24T03:18:21.942Z,113.35
2019-02-24T03:20:50.639Z,100.72
2019-02-24T03:23:19.349Z,110.97
2019-02-24T03:25:48.037Z,112.62
2019-02-24T03:28:16.733Z,109.40
2019-02-24T03:30:45.422Z,112.88
2019-02-24T03:33:14.097Z,104.03
2019-02-24T03:35:42.756Z,104.63
2019-02-24T03:38:11.416Z,103.32
2019-02-24T03:40:40.167Z,97.27
2019-02-24T03:43:08.886Z,101.38
2019-02-24T03:45:37.562Z,107.40
2019-02-24T03:48:06.258Z,104.03
2019-02-24T03:50:34.958Z,95.15
2019-02-24T03:53:03.633Z,107.43
2019-02-24T03:55:32.339Z,110.52
2019-02-24T03:58:01.024Z,99.97
2019-02-24T04:00:29.722Z,101.55
2019-02-24T04:02:58.374Z,95.57
2019-02-24T04:05:27.061Z,98.15
2019-02-24T04:07:55.701Z,94.87
2019-02-24T04:10:24.445Z,99.30
2019-02-24T04:12:53.141Z,100.47
2019-02-24T04:15:21.827Z,95.20
2019-02-24T04:17:50.525Z,97.15
2019-02-24T04:20:19.211Z,101.05
2019-02-24T04:22:47.895Z,98.95
2019-02-24T04:25:16.629Z,94.72
2019-02-24T04:27:45.294Z,91.10
2019-02-24T04:30:13.983Z,104.10
2019-02-24T04:32:42.716Z,103.15
2019-02-24T04:35:11.361Z,93.60
2019-02-24T04:37:40.045Z,101.42
2019-02-24T04:40:08.774Z,113.70
2019-02-24T04:42:37.451Z,108.63
2019-02-24T04:45:06.204Z,112.65
2019-02-24T04:47:34.920Z,106.32
2019-02-24T04:50:03.901Z,106.65
2019-02-24T04:52:32.614Z,106.12
2019-02-24T04:55:01.289Z,102.67
2019-02-24T04:57:30.050Z,105.45
2019-02-24T04:59:58.772Z,104.95
2019-02-24T05:02:27.441Z,106.05
2019-02-24T05:04:56.093Z,110.03
2019-02-24T05:07:24.775Z,106.87
2019-02-24T05:09:53.552Z,116.17
2019-02-24T05:12:22.282Z,105.63
2019-02-24T05:14:50.968Z,110.00
2019-02-24T05:17:19.671Z,100.55
2019-02-24T05:19:48.379Z,108.40
2019-02-24T05:22:17.066Z,111.62
2019-02-24T05:24:45.724Z,107.90
2019-02-24T05:27:14.421Z,102.47
2019-02-24T05:29:46.137Z,109.05
2019-02-24T05:32:13.461Z,113.05
2019-02-24T05:34:42.185Z,104.15
2019-02-24T05:37:10.845Z,98.50
2019-02-24T05:39:39.519Z,108.40
2019-02-24T05:42:08.208Z,108.32
2019-02-24T05:44:36.876Z,105.65
2019-02-24T05:47:05.574Z,107.78
2019-02-24T05:49:34.216Z,108.07
2019-02-24T05:52:02.923Z,106.75
2019-02-24T05:54:31.595Z,117.13
2019-02-24T05:57:00.297Z,110.63
2019-02-24T05:59:29.001Z,110.22
2019-02-24T06:01:57.672Z,109.90
2019-02-24T06:04:26.348Z,100.65
2019-02-24T06:06:55.047Z,107.63
2019-02-24T06:09:23.722Z,115.40
2019-02-24T06:11:52.449Z,107.45
2019-02-24T06:14:21.106Z,109.90
2019-02-24T06:16:49.763Z,150.45
2019-02-24T06:19:18.499Z,140.88
2019-02-24T06:21:47.155Z,121.00
2019-02-24T06:24:15.800Z,130.97
2019-02-24T06:26:44.493Z,155.70
2019-02-24T06:29:13.169Z,144.93
2019-02-24T06:31:41.881Z,148.30
2019-02-24T06:34:10.611Z,130.07
2019-02-24T06:36:39.336Z,129.10
2019-02-24T06:39:08.534Z,138.82
2019-02-24T06:41:37.250Z,129.45
2019-02-24T06:44:05.962Z,134.63
2019-02-24T06:46:34.771Z,130.67
2019-02-24T06:49:03.773Z,125.55
2019-02-24T06:51:32.450Z,115.22
2019-02-24T06:54:01.185Z,118.13
2019-02-24T06:56:29.836Z,118.17
2019-02-24T06:58:58.518Z,108.92
2019-02-24T07:01:27.229Z,115.15
2019-02-24T07:03:55.880Z,100.87
2019-02-24T07:06:24.568Z,107.70
2019-02-24T07:08:53.214Z,106.30
2019-02-24T07:11:21.901Z,108.42
2019-02-24T07:13:50.582Z,113.88
2019-02-24T07:16:19.252Z,167.15
2019-02-24T07:18:47.922Z,133.37
2019-02-24T07:21:16.652Z,115.55
2019-02-24T07:23:45.277Z,104.30
2019-02-24T07:26:13.949Z,116.93
2019-02-24T07:28:42.624Z,121.22
2019-02-24T07:31:11.298Z,121.90
2019-02-24T07:33:40.001Z,102.50
2019-02-24T07:36:08.714Z,109.42
2019-02-24T07:38:37.409Z,102.17
2019-02-24T07:41:06.090Z,104.72
2019-02-24T07:43:34.777Z,104.67
2019-02-24T07:46:03.514Z,102.53
2019-02-24T07:48:32.216Z,105.07
2019-02-24T07:51:01.099Z,103.02
2019-02-24T07:53:29.764Z,99.87
2019-02-24T07:55:58.760Z,105.55
2019-02-24T07:58:27.437Z,94.77
2019-02-24T08:00:56.116Z,96.45
2019-02-24T08:03:24.834Z,90.65
2019-02-24T08:05:53.482Z,91.12
2019-02-24T08:08:22.181Z,92.22
2019-02-24T08:10:50.865Z,93.27
2019-02-24T08:13:19.553Z,98.97
2019-02-24T08:15:48.240Z,92.00
2019-02-24T08:18:17.026Z,94.90
2019-02-24T08:20:45.764Z,114.95
2019-02-24T08:23:14.551Z,115.77
2019-02-24T08:25:43.206Z,110.00
2019-02-24T08:28:11.902Z,93.85
2019-02-24T08:30:41.809Z,103.70
2019-02-24T08:33:10.648Z,103.40
2019-02-24T08:35:39.345Z,80.38
2019-02-24T08:38:07.982Z,76.02
2019-02-24T08:40:36.633Z,84.77
2019-02-24T08:43:05.309Z,99.87
2019-02-24T08:45:33.983Z,73.83
2019-02-24T08:48:02.669Z,68.47
2019-02-24T08:50:31.345Z,67.75
2019-02-24T08:52:59.992Z,61.95
2019-02-24T08:55:28.672Z,67.62
2019-02-24T08:57:57.345Z,59.83
2019-02-24T09:00:26.037Z,64.12
2019-02-24T09:02:54.747Z,63.10
2019-02-24T09:05:23.434Z,70.00
2019-02-24T09:07:52.162Z,65.37
2019-02-24T09:10:21.217Z,61.45
2019-02-24T09:12:49.955Z,63.30
2019-02-24T09:15:18.695Z,61.30
2019-02-24T09:17:47.394Z,65.20
2019-02-24T09:20:16.042Z,62.13
2019-02-24T09:22:44.773Z,79.03
2019-02-24T09:25:13.377Z,69.40
2019-02-24T09:27:42.028Z,72.90
2019-02-24T09:30:12.700Z,67.95
2019-02-24T09:32:41.457Z,64.05
2019-02-24T09:35:10.433Z,67.03
2019-02-24T09:37:39.194Z,67.17
2019-02-24T09:40:10.986Z,58.28
2019-02-24T09:42:39.615Z,58.33
2019-02-24T09:45:10.362Z,62.48
2019-02-24T09:47:46.347Z,68.92
2019-02-24T09:50:10.037Z,58.85
2019-02-24T09:52:38.979Z,57.33
2019-02-24T09:55:09.078Z,55.50
2019-02-24T09:57:37.791Z,52.20
2019-02-24T10:00:12.493Z,44.08
2019-02-24T10:02:41.217Z,57.38
2019-02-24T10:05:10.093Z,49.70
2019-02-24T10:07:38.803Z,49.77
2019-02-24T10:10:12.416Z,48.90
2019-02-24T10:12:41.094Z,43.75
2019-02-24T10:15:14.293Z,37.98
2019-02-24T10:17:43.017Z,41.23
2019-02-24T10:20:13.220Z,50.08
2019-02-24T10:22:41.929Z,42.10
2019-02-24T10:25:10.596Z,45.85
2019-02-24T10:27:39.270Z,44.33
2019-02-24T10:30:16.012Z,45.98
2019-02-24T10:32:44.736Z,38.75
2019-02-24T10:35:13.431Z,36.17
2019-02-24T10:37:42.207Z,38.63
2019-02-24T10:40:17.342Z,38.95
2019-02-24T10:42:46.021Z,42.58
2019-02-24T10:45:16.369Z,38.50
2019-02-24T10:47:45.041Z,40.40
2019-02-24T10:50:15.025Z,49.38
2019-02-24T10:52:43.764Z,34.75
2019-02-24T10:55:12.433Z,37.48
2019-02-24T10:57:41.617Z,37.55
2019-02-24T11:00:18.709Z,40.83
2019-02-24T11:02:47.412Z,34.27
2019-02-24T11:05:16.390Z,33.55
2019-02-24T11:07:45.135Z,32.95
2019-02-24T11:10:13.816Z,38.08
2019-02-24T11:12:43.877Z,28.32
2019-02-24T11:15:13.534Z,29.70
2019-02-24T11:17:42.177Z,36.77
2019-02-24T11:20:15.159Z,33.53
2019-02-24T11:22:43.951Z,38.93
2019-02-24T11:25:12.692Z,36.80
2019-02-24T11:27:41.384Z,37.93
2019-02-24T11:30:13.713Z,43.68
2019-02-24T11:32:42.393Z,36.55
2019-02-24T11:35:12.015Z,38.78
2019-02-24T11:37:40.693Z,41.70
2019-02-24T11:40:11.470Z,41.25
2019-02-24T11:42:40.235Z,34.92
2019-02-24T11:45:09.619Z,37.10
2019-02-24T11:47:38.344Z,34.18
2019-02-24T11:50:09.385Z,32.48
2019-02-24T11:52:38.204Z,32.98
2019-02-24T11:55:08.200Z,34.05
2019-02-24T11:57:36.980Z,34.63
2019-02-24T12:00:08.909Z,36.58
2019-02-24T12:02:37.762Z,39.83
2019-02-24T12:05:07.775Z,38.73
2019-02-24T12:07:36.461Z,37.95
2019-02-24T12:10:08.146Z,34.83
2019-02-24T12:12:36.868Z,35.78
2019-02-24T12:15:10.892Z,32.42
2019-02-24T12:17:39.643Z,37.20
2019-02-24T12:20:10.473Z,32.65
2019-02-24T12:22:39.179Z,31.82
2019-02-24T12:25:09.347Z,33.63
2019-02-24T12:27:37.997Z,33.23
2019-02-24T12:30:11.599Z,35.52
2019-02-24T12:32:40.259Z,34.78
2019-02-24T12:35:08.905Z,34.48
2019-02-24T12:37:37.648Z,38.65
2019-02-24T12:40:08.929Z,36.83
2019-02-24T12:42:37.602Z,38.98
2019-02-24T12:45:10.155Z,40.85
2019-02-24T12:47:38.804Z,38.00
2019-02-24T12:50:10.868Z,46.15
2019-02-24T12:52:39.677Z,46.98
2019-02-24T12:55:09.412Z,40.43
2019-02-24T12:57:38.115Z,43.87
2019-02-24T13:00:16.435Z,34.18
2019-02-24T13:02:45.337Z,39.45
2019-02-24T13:05:14.010Z,38.45
2019-02-24T13:07:42.656Z,37.90
2019-02-24T13:10:13.957Z,33.38
2019-02-24T13:12:42.629Z,33.58
2019-02-24T13:15:11.318Z,37.10
2019-02-24T13:17:39.994Z,42.83
2019-02-24T13:20:13.166Z,35.50
2019-02-24T13:22:41.860Z,39.03
2019-02-24T13:25:12.061Z,34.83
2019-02-24T13:27:40.809Z,39.00
2019-02-24T13:30:12.207Z,38.67
2019-02-24T13:32:40.927Z,43.30
2019-02-24T13:35:09.742Z,33.90
2019-02-24T13:37:38.527Z,30.52
2019-02-24T13:40:10.361Z,37.00
2019-02-24T13:42:39.060Z,39.20
2019-02-24T13:45:21.787Z,36.58
2019-02-24T13:47:50.439Z,35.30
2019-02-24T13:50:19.202Z,34.35
2019-02-24T13:52:47.993Z,35.03
2019-02-24T13:55:16.728Z,29.90
2019-02-24T13:57:45.514Z,30.57
2019-02-24T14:00:17.277Z,31.97
2019-02-24T14:02:46.057Z,27.55
2019-02-24T14:05:16.694Z,31.45
2019-02-24T14:07:45.471Z,35.48
2019-02-24T14:10:14.796Z,32.45
2019-02-24T14:12:43.556Z,25.40
2019-02-24T14:15:13.472Z,24.67
2019-02-24T14:17:42.166Z,23.70
2019-02-24T14:20:13.525Z,23.75
2019-02-24T14:22:42.253Z,25.88
2019-02-24T14:25:12.015Z,27.58
2019-02-24T14:27:41.025Z,26.12
2019-02-24T14:30:14.533Z,24.52
2019-02-24T14:32:44.125Z,23.87
2019-02-24T14:35:24.377Z,25.23
2019-02-24T14:37:53.171Z,24.47
2019-02-24T14:40:21.867Z,29.45
2019-02-24T14:42:50.634Z,24.52
2019-02-24T14:45:23.823Z,24.55
2019-02-24T14:47:52.532Z,25.27
2019-02-24T14:50:21.152Z,23.38
2019-02-24T14:52:49.884Z,30.30
2019-02-24T14:55:18.613Z,27.95
2019-02-24T14:57:47.419Z,30.72
2019-02-24T15:00:18.490Z,38.45
2019-02-24T15:02:47.223Z,31.85
2019-02-24T15:05:16.833Z,33.08
2019-02-24T15:07:45.677Z,33.25
2019-02-24T15:10:24.697Z,31.37
2019-02-24T15:12:53.444Z,22.93
2019-02-24T15:15:32.881Z,29.65
2019-02-24T15:17:57.964Z,28.65
2019-02-24T15:20:26.656Z,23.30
2019-02-24T15:22:55.347Z,28.75
2019-02-24T15:25:24.963Z,24.00
2019-02-24T15:27:53.635Z,29.82
2019-02-24T15:30:27.862Z,31.37
2019-02-24T15:32:56.508Z,31.90
2019-02-24T15:35:25.179Z,27.67
2019-02-24T15:37:53.825Z,30.57
2019-02-24T15:40:22.494Z,31.00
2019-02-24T15:42:51.165Z,35.58
2019-02-24T15:45:19.870Z,39.15
2019-02-24T15:47:48.578Z,42.70
2019-02-24T15:50:17.245Z,34.83
2019-02-24T15:52:45.945Z,41.33
2019-02-24T15:55:15.645Z,40.55
2019-02-24T15:57:44.324Z,37.90
2019-02-24T16:00:23.656Z,39.33
2019-02-24T16:03:01.112Z,41.20
2019-02-24T16:05:23.014Z,42.27
2019-02-24T16:07:51.731Z,33.35
2019-02-24T16:10:21.526Z,40.23
2019-02-24T16:12:50.184Z,36.70
2019-02-24T16:15:25.599Z,35.68
2019-02-24T16:17:54.344Z,33.95
2019-02-24T16:20:34.164Z,34.60
2019-02-24T16:23:02.877Z,40.00
2019-02-24T16:25:31.588Z,38.60
2019-02-24T16:28:00.246Z,42.00
2019-02-24T16:30:28.993Z,38.10
2019-02-24T16:32:57.646Z,30.60
2019-02-24T16:35:26.334Z,54.85
2019-02-24T16:37:55.034Z,34.55
2019-02-24T16:40:26.187Z,36.15
2019-02-24T16:42:54.865Z,41.02
2019-02-24T16:45:23.543Z,36.20
2019-02-24T16:47:52.207Z,36.10
2019-02-24T16:50:23.129Z,38.88
2019-02-24T16:52:51.898Z,44.33
2019-02-24T16:55:20.677Z,62.35
2019-02-24T16:57:49.365Z,52.20
2019-02-24T17:00:25.122Z,48.63
2019-02-24T17:02:53.792Z,46.92
2019-02-24T17:05:22.470Z,40.92
2019-02-24T17:07:51.149Z,47.73
2019-02-24T17:10:23.796Z,41.48
2019-02-24T17:12:52.480Z,48.28
2019-02-24T17:15:21.194Z,41.40
2019-02-24T17:17:50.242Z,48.38
2019-02-24T17:20:22.013Z,51.77
2019-02-24T17:22:50.704Z,54.33
2019-02-24T17:25:19.449Z,55.08
2019-02-24T17:27:48.144Z,52.15
2019-02-24T17:30:16.979Z,55.55
2019-02-24T17:32:45.690Z,52.93
2019-02-24T17:35:14.398Z,53.05
2019-02-24T17:37:43.037Z,53.75
2019-02-24T17:40:19.373Z,55.25
2019-02-24T17:42:47.882Z,60.40
2019-02-24T17:45:16.534Z,68.92
2019-02-24T17:47:45.198Z,69.47
2019-02-24T17:50:14.881Z,66.00
2019-02-24T17:52:43.550Z,56.90
2019-02-24T17:55:13.741Z,56.55
2019-02-24T17:57:42.470Z,56.13
2019-02-24T18:00:16.897Z,51.28
2019-02-24T18:02:45.556Z,49.88
2019-02-24T18:05:14.280Z,55.08
2019-02-24T18:07:43.034Z,54.58
2019-02-24T18:10:11.817Z,57.83
2019-02-24T18:12:40.562Z,61.42
2019-02-24T18:15:11.353Z,59.00
2019-02-24T18:17:39.992Z,55.48
2019-02-24T18:20:11.473Z,54.13
2019-02-24T18:22:40.170Z,62.73
2019-02-24T18:25:10.867Z,69.77
2019-02-24T18:27:39.557Z,80.72
2019-02-24T18:30:22.424Z,77.72
2019-02-24T18:32:51.143Z,71.95
2019-02-24T18:35:19.861Z,66.67
2019-02-24T18:37:48.492Z,56.65
2019-02-24T18:40:17.167Z,56.92
2019-02-24T18:42:45.892Z,59.33
2019-02-24T18:45:16.072Z,55.30
2019-02-24T18:47:44.748Z,51.63
2019-02-24T18:50:15.142Z,51.60
2019-02-24T18:52:43.826Z,56.60
2019-02-24T18:55:13.208Z,50.70
2019-02-24T18:57:41.872Z,45.33
2019-02-24T19:00:17.667Z,45.45
2019-02-24T19:02:46.349Z,63.08
2019-02-24T19:05:14.992Z,64.72
2019-02-24T19:07:43.993Z,70.78
2019-02-24T19:10:14.742Z,72.10
2019-02-24T19:12:43.773Z,75.60
2019-02-24T19:15:14.746Z,79.62
2019-02-24T19:17:43.448Z,88.17
2019-02-24T19:20:17.459Z,81.97
2019-02-24T19:22:46.190Z,90.65
2019-02-24T19:25:14.941Z,63.30
2019-02-24T19:27:43.586Z,57.73
2019-02-24T19:30:19.470Z,59.85
2019-02-24T19:32:48.161Z,75.40
2019-02-24T19:35:17.813Z,86.45
2019-02-24T19:37:46.464Z,94.85
2019-02-24T19:40:19.836Z,100.80
2019-02-24T19:42:48.509Z,93.60
2019-02-24T19:45:23.110Z,68.42
2019-02-24T19:47:51.790Z,70.90
2019-02-24T19:50:20.535Z,56.45
2019-02-24T19:52:49.205Z,57.93
2019-02-24T19:55:18.314Z,84.87
2019-02-24T19:57:47.029Z,73.00
2019-02-24T20:00:23.689Z,82.97
2019-02-24T20:02:52.421Z,69.62
2019-02-24T20:05:21.277Z,102.25
2019-02-24T20:07:49.962Z,87.40
2019-02-24T20:10:23.382Z,131.67
2019-02-24T20:12:52.087Z,137.90
2019-02-24T20:15:20.770Z,101.58
2019-02-24T20:17:49.526Z,89.90
2019-02-24T20:20:18.189Z,57.78
2019-02-24T20:22:46.882Z,50.52
2019-02-24T20:25:21.437Z,65.17
2019-02-24T20:27:50.132Z,55.43
2019-02-24T20:30:30.507Z,50.95
2019-02-24T20:33:00.098Z,55.55
2019-02-24T20:35:28.773Z,57.43
2019-02-24T20:37:57.455Z,50.15
2019-02-24T20:40:26.188Z,42.55
2019-02-24T20:42:54.865Z,35.05
2019-02-24T20:45:24.329Z,33.92
2019-02-24T20:47:52.997Z,37.67
2019-02-24T20:50:33.358Z,40.33
2019-02-24T20:53:02.079Z,34.15
2019-02-24T20:55:30.750Z,43.25
2019-02-24T20:57:59.445Z,42.25
2019-02-24T21:00:40.138Z,33.30
2019-02-24T21:03:09.078Z,39.50
2019-02-24T21:05:37.969Z,35.00
2019-02-24T21:08:08.051Z,37.17
2019-02-24T21:10:37.174Z,39.95
2019-02-24T21:13:05.956Z,37.95
2019-02-24T21:15:34.831Z,38.98
2019-02-24T21:18:03.693Z,36.40
2019-02-24T21:20:33.839Z,35.25
2019-02-24T21:23:02.649Z,36.77
2019-02-24T21:25:31.419Z,41.42
2019-02-24T21:28:00.399Z,40.98
2019-02-24T21:30:29.178Z,41.90
2019-02-24T21:32:57.911Z,43.68
2019-02-24T21:35:26.735Z,46.13
2019-02-24T21:37:55.444Z,39.38
2019-02-24T21:40:24.168Z,41.15
2019-02-24T21:42:52.914Z,45.10
2019-02-24T21:45:29.143Z,113.10
2019-02-24T21:47:57.857Z,86.65
2019-02-24T21:50:26.599Z,74.10
2019-02-24T21:52:55.380Z,53.33
2019-02-24T21:55:24.158Z,44.65
2019-02-24T21:57:52.902Z,37.58
2019-02-24T22:00:25.391Z,37.17
2019-02-24T22:02:54.139Z,39.15
2019-02-24T22:05:22.848Z,35.68
2019-02-24T22:07:51.582Z,33.15
2019-02-24T22:10:20.390Z,32.78
2019-02-24T22:12:49.188Z,39.38
2019-02-24T22:15:20.025Z,39.20
2019-02-24T22:17:48.854Z,38.28
2019-02-24T22:20:17.661Z,39.15
2019-02-24T22:22:46.603Z,40.17
2019-02-24T22:25:15.597Z,39.15
2019-02-24T22:27:44.380Z,49.15
2019-02-24T22:30:22.343Z,40.60
2019-02-24T22:32:51.307Z,43.83
2019-02-24T22:35:20.098Z,41.40
2019-02-24T22:37:48.765Z,39.92
2019-02-24T22:40:17.615Z,49.48
2019-02-24T22:42:46.712Z,45.30
2019-02-24T22:45:18.017Z,37.67
2019-02-24T22:47:46.780Z,38.60
2019-02-24T22:50:15.889Z,41.58
2019-02-24T22:52:45.081Z,38.55
2019-02-24T22:55:15.455Z,42.20
2019-02-24T22:57:44.330Z,44.83
2019-02-24T23:00:33.030Z,50.28
2019-02-24T23:03:01.671Z,45.10
2019-02-24T23:05:30.366Z,48.10
2019-02-24T23:07:59.009Z,46.18
2019-02-24T23:10:27.935Z,48.95
2019-02-24T23:12:56.578Z,44.55
2019-02-24T23:15:25.241Z,42.25
2019-02-24T23:17:53.906Z,42.33
2019-02-24T23:20:22.680Z,43.05
2019-02-24T23:22:51.289Z,44.77
2019-02-24T23:25:19.939Z,45.70
2019-02-24T23:27:48.654Z,38.33
2019-02-24T23:30:17.332Z,41.75
2019-02-24T23:32:46.061Z,43.05
2019-02-24T23:35:14.757Z,42.78
2019-02-24T23:37:43.609Z,44.35
2019-02-24T23:40:12.252Z,38.83
2019-02-24T23:42:40.980Z,38.28
2019-02-24T23:45:11.883Z,44.73
2019-02-24T23:47:40.894Z,45.80
2019-02-24T23:50:11.160Z,44.63
2019-02-24T23:52:39.841Z,43.98
2019-02-24T23:55:09.613Z,44.30
2019-02-24T23:57:38.299Z,44.03
